Terminal Aerodrome Forecast
Issued by NWS

Home | Current Version | Previous Version | Text Only | Print | Product List | Glossary On
Versions: 1 2 3 4 5 6 7 8 9 10 11 12 13 14 15 16 17 18 19 20
000
FTUS41 KAKQ 030537
TAFPHF
TAF
KPHF 030537Z 0306/0406 VRB04KT P6SM SCT020 BKN040 BKN120
     FM030700 20008KT 4SM -RA BR BKN040 OVC070
     FM031000 21009KT 4SM -RA BR OVC012
     FM031700 24005KT P6SM SCT012 BKN035
     FM032000 24005KT P6SM BKN050
     FM040000 04004KT P6SM BKN050=

USA.gov is the U.S. government's official web portal to all federal, state and local government web resources and services.